sensor_id;sensor_type;location;lat;lon;timestamp;pressure;altitude;pressure_sealevel;temperature;humidity
74958;BME280;63741;42.624;26.276;2023-06-26T00:01:31;99179.44;;;24.19;65.71
74958;BME280;63741;42.624;26.276;2023-06-26T00:03:59;99194.44;;;24.15;66.28
74958;BME280;63741;42.624;26.276;2023-06-26T00:06:27;99178.13;;;23.96;66.59
74958;BME280;63741;42.624;26.276;2023-06-26T00:08:55;99188.09;;;24.03;67.40
74958;BME280;63741;42.624;26.276;2023-06-26T00:11:22;99186.69;;;23.93;67.37
74958;BME280;63741;42.624;26.276;2023-06-26T00:13:50;99184.00;;;23.93;67.88
74958;BME280;63741;42.624;26.276;2023-06-26T00:16:17;99177.94;;;23.98;67.72
74958;BME280;63741;42.624;26.276;2023-06-26T00:18:43;99183.94;;;24.00;68.22
74958;BME280;63741;42.624;26.276;2023-06-26T00:21:10;99177.31;;;24.28;67.41
74958;BME280;63741;42.624;26.276;2023-06-26T00:23:38;99170.75;;;24.17;67.84
74958;BME280;63741;42.624;26.276;2023-06-26T00:26:06;99174.22;;;24.24;67.32
74958;BME280;63741;42.624;26.276;2023-06-26T00:28:33;99169.84;;;24.23;68.17
74958;BME280;63741;42.624;26.276;2023-06-26T00:31:00;99171.25;;;24.32;68.21
74958;BME280;63741;42.624;26.276;2023-06-26T00:33:28;99177.06;;;24.04;69.51
74958;BME280;63741;42.624;26.276;2023-06-26T00:35:56;99169.69;;;23.86;70.71
74958;BME280;63741;42.624;26.276;2023-06-26T00:38:23;99165.59;;;24.09;69.53
74958;BME280;63741;42.624;26.276;2023-06-26T00:40:50;99159.78;;;24.05;70.22
74958;BME280;63741;42.624;26.276;2023-06-26T00:43:21;99160.63;;;24.06;70.61
74958;BME280;63741;42.624;26.276;2023-06-26T00:45:48;99157.34;;;24.29;69.83
74958;BME280;63741;42.624;26.276;2023-06-26T00:48:15;99156.28;;;24.05;70.57
74958;BME280;63741;42.624;26.276;2023-06-26T00:50:42;99157.13;;;24.30;69.70
74958;BME280;63741;42.624;26.276;2023-06-26T00:53:11;99144.28;;;24.26;69.73
74958;BME280;63741;42.624;26.276;2023-06-26T00:55:38;99148.19;;;24.30;69.83
74958;BME280;63741;42.624;26.276;2023-06-26T00:58:05;99139.97;;;24.18;70.00
74958;BME280;63741;42.624;26.276;2023-06-26T01:00:32;99139.38;;;24.16;69.86
74958;BME280;63741;42.624;26.276;2023-06-26T01:02:59;99134.06;;;24.28;68.96
74958;BME280;63741;42.624;26.276;2023-06-26T01:05:28;99143.78;;;24.35;68.69
74958;BME280;63741;42.624;26.276;2023-06-26T01:07:57;99140.25;;;24.35;69.99
74958;BME280;63741;42.624;26.276;2023-06-26T01:10:24;99140.50;;;24.33;69.56
74958;BME280;63741;42.624;26.276;2023-06-26T01:12:54;99138.06;;;24.25;70.51
74958;BME280;63741;42.624;26.276;2023-06-26T01:15:21;99139.88;;;24.31;70.33
74958;BME280;63741;42.624;26.276;2023-06-26T01:17:50;99137.16;;;24.31;70.54
74958;BME280;63741;42.624;26.276;2023-06-26T01:20:19;99139.88;;;24.31;71.28
74958;BME280;63741;42.624;26.276;2023-06-26T01:28:28;99118.91;;;24.27;70.84
74958;BME280;63741;42.624;26.276;2023-06-26T01:30:56;99122.59;;;24.07;72.24
74958;BME280;63741;42.624;26.276;2023-06-26T01:33:24;99120.16;;;24.24;70.75
74958;BME280;63741;42.624;26.276;2023-06-26T01:35:51;99125.06;;;24.40;69.99
74958;BME280;63741;42.624;26.276;2023-06-26T01:38:21;99126.66;;;24.48;69.35
74958;BME280;63741;42.624;26.276;2023-06-26T01:40:50;99120.88;;;24.13;70.37
74958;BME280;63741;42.624;26.276;2023-06-26T01:43:29;99119.72;;;24.27;70.30
74958;BME280;63741;42.624;26.276;2023-06-26T01:46:04;99119.72;;;24.27;69.78
74958;BME280;63741;42.624;26.276;2023-06-26T01:49:01;99125.47;;;24.12;71.07
74958;BME280;63741;42.624;26.276;2023-06-26T01:51:35;99125.22;;;24.14;71.22
74958;BME280;63741;42.624;26.276;2023-06-26T01:54:10;99125.50;;;24.06;70.62
74958;BME280;63741;42.624;26.276;2023-06-26T01:56:42;99132.75;;;24.12;70.70
74958;BME280;63741;42.624;26.276;2023-06-26T01:59:11;99126.50;;;24.11;70.36
74958;BME280;63741;42.624;26.276;2023-06-26T02:01:40;99128.34;;;24.17;70.58
74958;BME280;63741;42.624;26.276;2023-06-26T02:04:08;99127.00;;;24.27;70.23
74958;BME280;63741;42.624;26.276;2023-06-26T02:06:35;99125.97;;;24.28;69.29
74958;BME280;63741;42.624;26.276;2023-06-26T02:09:01;99123.53;;;24.19;68.96
74958;BME280;63741;42.624;26.276;2023-06-26T02:11:30;99127.78;;;24.09;68.96
74958;BME280;63741;42.624;26.276;2023-06-26T02:13:57;99141.31;;;24.34;68.66
74958;BME280;63741;42.624;26.276;2023-06-26T02:16:24;99135.31;;;24.00;70.41
74958;BME280;63741;42.624;26.276;2023-06-26T02:18:51;99129.84;;;23.75;71.73
74958;BME280;63741;42.624;26.276;2023-06-26T02:21:22;99133.81;;;23.73;72.40
74958;BME280;63741;42.624;26.276;2023-06-26T02:23:49;99135.56;;;23.92;72.15
74958;BME280;63741;42.624;26.276;2023-06-26T02:26:16;99133.75;;;24.11;71.67
74958;BME280;63741;42.624;26.276;2023-06-26T02:28:43;99136.97;;;24.01;72.72
74958;BME280;63741;42.624;26.276;2023-06-26T02:31:11;99137.91;;;23.82;73.18
74958;BME280;63741;42.624;26.276;2023-06-26T02:33:38;99148.06;;;23.86;73.29
74958;BME280;63741;42.624;26.276;2023-06-26T02:36:05;99141.53;;;23.62;73.75
74958;BME280;63741;42.624;26.276;2023-06-26T02:38:34;99143.78;;;23.72;73.25
74958;BME280;63741;42.624;26.276;2023-06-26T02:41:02;99128.00;;;23.69;73.19
74958;BME280;63741;42.624;26.276;2023-06-26T02:43:29;99144.31;;;23.42;74.72
74958;BME280;63741;42.624;26.276;2023-06-26T02:45:56;99141.66;;;23.29;76.78
74958;BME280;63741;42.624;26.276;2023-06-26T02:48:23;99143.84;;;23.52;75.19
74958;BME280;63741;42.624;26.276;2023-06-26T02:50:50;99152.56;;;23.54;74.90
74958;BME280;63741;42.624;26.276;2023-06-26T02:53:18;99150.13;;;23.46;75.20
74958;BME280;63741;42.624;26.276;2023-06-26T02:55:46;99135.44;;;23.29;76.87
74958;BME280;63741;42.624;26.276;2023-06-26T02:58:15;99138.66;;;22.92;77.00
74958;BME280;63741;42.624;26.276;2023-06-26T03:00:42;99138.44;;;23.01;76.77
74958;BME280;63741;42.624;26.276;2023-06-26T03:03:14;99133.47;;;22.98;78.17
74958;BME280;63741;42.624;26.276;2023-06-26T03:05:41;99134.72;;;22.62;78.67
74958;BME280;63741;42.624;26.276;2023-06-26T03:08:08;99138.66;;;22.66;77.71
74958;BME280;63741;42.624;26.276;2023-06-26T03:10:35;99138.44;;;22.67;77.16
74958;BME280;63741;42.624;26.276;2023-06-26T03:13:02;99140.75;;;22.77;77.69
74958;BME280;63741;42.624;26.276;2023-06-26T03:15:29;99139.22;;;23.08;72.73
74958;BME280;63741;42.624;26.276;2023-06-26T03:17:56;99146.69;;;23.12;74.50
74958;BME280;63741;42.624;26.276;2023-06-26T03:20:26;99148.06;;;23.35;74.74
74958;BME280;63741;42.624;26.276;2023-06-26T03:22:55;99144.72;;;23.46;73.21
74958;BME280;63741;42.624;26.276;2023-06-26T03:25:23;99159.44;;;23.43;72.99
74958;BME280;63741;42.624;26.276;2023-06-26T03:27:58;99148.75;;;23.24;75.13
74958;BME280;63741;42.624;26.276;2023-06-26T03:30:26;99161.66;;;23.02;77.22
74958;BME280;63741;42.624;26.276;2023-06-26T03:32:56;99164.38;;;22.22;79.67
74958;BME280;63741;42.624;26.276;2023-06-26T03:35:23;99157.16;;;22.42;80.11
74958;BME280;63741;42.624;26.276;2023-06-26T03:37:51;99156.09;;;22.57;79.49
74958;BME280;63741;42.624;26.276;2023-06-26T03:40:18;99152.56;;;22.23;80.50
74958;BME280;63741;42.624;26.276;2023-06-26T03:42:49;99158.31;;;22.07;81.70
74958;BME280;63741;42.624;26.276;2023-06-26T03:45:16;99163.75;;;22.13;81.77
74958;BME280;63741;42.624;26.276;2023-06-26T03:47:44;99164.56;;;22.14;81.60
74958;BME280;63741;42.624;26.276;2023-06-26T03:50:14;99164.72;;;21.99;82.63
74958;BME280;63741;42.624;26.276;2023-06-26T03:52:41;99169.06;;;22.00;82.89
74958;BME280;63741;42.624;26.276;2023-06-26T03:55:11;99171.97;;;21.99;83.17
74958;BME280;63741;42.624;26.276;2023-06-26T03:57:38;99168.31;;;22.19;83.03
74958;BME280;63741;42.624;26.276;2023-06-26T04:00:06;99171.84;;;22.27;82.82
74958;BME280;63741;42.624;26.276;2023-06-26T04:02:40;99177.84;;;22.35;82.44
74958;BME280;63741;42.624;26.276;2023-06-26T04:05:07;99180.78;;;22.47;81.49
74958;BME280;63741;42.624;26.276;2023-06-26T04:07:37;99184.28;;;22.21;82.85
74958;BME280;63741;42.624;26.276;2023-06-26T04:10:06;99178.91;;;22.48;82.63
74958;BME280;63741;42.624;26.276;2023-06-26T04:12:33;99174.97;;;22.43;81.74
74958;BME280;63741;42.624;26.276;2023-06-26T04:15:00;99182.22;;;22.30;82.63
74958;BME280;63741;42.624;26.276;2023-06-26T04:17:27;99191.97;;;22.44;82.97
74958;BME280;63741;42.624;26.276;2023-06-26T04:19:54;99188.88;;;22.47;81.64
74958;BME280;63741;42.624;26.276;2023-06-26T04:22:21;99183.03;;;22.50;82.41
74958;BME280;63741;42.624;26.276;2023-06-26T04:24:48;99168.97;;;22.48;81.18
74958;BME280;63741;42.624;26.276;2023-06-26T04:27:16;99175.78;;;22.44;80.94
74958;BME280;63741;42.624;26.276;2023-06-26T04:29:43;99173.75;;;22.59;82.15
74958;BME280;63741;42.624;26.276;2023-06-26T04:32:10;99173.91;;;22.44;81.75
74958;BME280;63741;42.624;26.276;2023-06-26T04:34:37;99173.31;;;22.42;80.50
74958;BME280;63741;42.624;26.276;2023-06-26T04:37:07;99180.97;;;22.59;79.94
74958;BME280;63741;42.624;26.276;2023-06-26T04:39:37;99181.41;;;22.56;80.80
74958;BME280;63741;42.624;26.276;2023-06-26T04:42:05;99173.72;;;22.53;81.33
74958;BME280;63741;42.624;26.276;2023-06-26T04:44:32;99190.72;;;22.47;79.40
74958;BME280;63741;42.624;26.276;2023-06-26T04:47:00;99180.53;;;22.15;81.55
74958;BME280;63741;42.624;26.276;2023-06-26T04:49:27;99182.34;;;22.08;82.82
74958;BME280;63741;42.624;26.276;2023-06-26T04:51:55;99183.88;;;22.24;82.99
74958;BME280;63741;42.624;26.276;2023-06-26T04:54:22;99182.84;;;22.25;81.19
74958;BME280;63741;42.624;26.276;2023-06-26T04:56:49;99180.34;;;22.30;80.80
74958;BME280;63741;42.624;26.276;2023-06-26T04:59:16;99187.56;;;22.23;80.30
74958;BME280;63741;42.624;26.276;2023-06-26T05:01:43;99183.66;;;22.32;81.82
74958;BME280;63741;42.624;26.276;2023-06-26T05:04:15;99185.53;;;22.25;81.33
74958;BME280;63741;42.624;26.276;2023-06-26T05:06:42;99185.97;;;22.55;80.99
74958;BME280;63741;42.624;26.276;2023-06-26T05:09:09;99192.59;;;22.59;81.23
74958;BME280;63741;42.624;26.276;2023-06-26T05:11:37;99190.94;;;22.38;82.52
74958;BME280;63741;42.624;26.276;2023-06-26T05:14:05;99191.34;;;22.42;82.70
74958;BME280;63741;42.624;26.276;2023-06-26T05:16:34;99186.13;;;22.27;82.83
74958;BME280;63741;42.624;26.276;2023-06-26T05:19:01;99189.44;;;22.23;84.10
74958;BME280;63741;42.624;26.276;2023-06-26T05:21:29;99198.78;;;22.20;83.45
74958;BME280;63741;42.624;26.276;2023-06-26T05:23:57;99201.84;;;22.10;86.01
74958;BME280;63741;42.624;26.276;2023-06-26T05:26:25;99199.34;;;22.09;84.88
74958;BME280;63741;42.624;26.276;2023-06-26T05:28:53;99206.56;;;21.88;85.97
74958;BME280;63741;42.624;26.276;2023-06-26T05:31:20;99202.78;;;21.76;86.09
74958;BME280;63741;42.624;26.276;2023-06-26T05:33:48;99211.69;;;21.77;86.22
74958;BME280;63741;42.624;26.276;2023-06-26T05:36:16;99208.81;;;21.85;86.35
74958;BME280;63741;42.624;26.276;2023-06-26T05:38:44;99210.03;;;21.82;87.43
74958;BME280;63741;42.624;26.276;2023-06-26T05:41:11;99217.13;;;21.96;86.28
74958;BME280;63741;42.624;26.276;2023-06-26T05:43:38;99219.91;;;22.16;85.21
74958;BME280;63741;42.624;26.276;2023-06-26T05:46:05;99226.59;;;22.47;84.59
74958;BME280;63741;42.624;26.276;2023-06-26T05:48:32;99229.06;;;22.49;84.48
74958;BME280;63741;42.624;26.276;2023-06-26T05:50:59;99238.00;;;22.56;83.55
74958;BME280;63741;42.624;26.276;2023-06-26T05:53:26;99245.47;;;22.60;83.66
74958;BME280;63741;42.624;26.276;2023-06-26T05:55:54;99232.63;;;22.56;83.80
74958;BME280;63741;42.624;26.276;2023-06-26T05:58:23;99249.78;;;22.28;85.50
74958;BME280;63741;42.624;26.276;2023-06-26T06:00:51;99252.34;;;21.95;87.00
74958;BME280;63741;42.624;26.276;2023-06-26T06:03:18;99250.47;;;21.89;88.68
74958;BME280;63741;42.624;26.276;2023-06-26T06:05:45;99246.84;;;21.62;90.18
74958;BME280;63741;42.624;26.276;2023-06-26T06:08:12;99251.19;;;21.69;89.80
74958;BME280;63741;42.624;26.276;2023-06-26T06:10:39;99255.28;;;21.59;91.41
74958;BME280;63741;42.624;26.276;2023-06-26T06:13:06;99259.47;;;21.68;89.63
74958;BME280;63741;42.624;26.276;2023-06-26T06:15:33;99257.84;;;21.74;89.13
74958;BME280;63741;42.624;26.276;2023-06-26T06:18:00;99258.28;;;21.77;89.45
74958;BME280;63741;42.624;26.276;2023-06-26T06:20:27;99242.50;;;21.74;89.93
74958;BME280;63741;42.624;26.276;2023-06-26T06:22:54;99249.00;;;21.86;89.94
74958;BME280;63741;42.624;26.276;2023-06-26T06:25:21;99256.91;;;21.94;88.56
74958;BME280;63741;42.624;26.276;2023-06-26T06:27:48;99252.94;;;21.90;89.33
74958;BME280;63741;42.624;26.276;2023-06-26T06:30:15;99255.31;;;22.13;88.95
74958;BME280;63741;42.624;26.276;2023-06-26T06:32:42;99256.41;;;22.19;88.62
74958;BME280;63741;42.624;26.276;2023-06-26T06:35:09;99250.59;;;22.15;88.29
74958;BME280;63741;42.624;26.276;2023-06-26T06:37:38;99261.16;;;22.17;87.35
74958;BME280;63741;42.624;26.276;2023-06-26T06:40:06;99251.66;;;22.34;88.56
74958;BME280;63741;42.624;26.276;2023-06-26T06:42:33;99256.16;;;22.14;89.56
74958;BME280;63741;42.624;26.276;2023-06-26T06:45:02;99251.88;;;22.39;89.11
74958;BME280;63741;42.624;26.276;2023-06-26T06:47:30;99261.81;;;22.39;89.38
74958;BME280;63741;42.624;26.276;2023-06-26T06:49:57;99251.69;;;22.54;88.52
74958;BME280;63741;42.624;26.276;2023-06-26T06:52:24;99253.13;;;22.50;88.26
74958;BME280;63741;42.624;26.276;2023-06-26T06:54:52;99254.38;;;22.67;88.16
74958;BME280;63741;42.624;26.276;2023-06-26T06:57:20;99263.72;;;22.65;89.08
74958;BME280;63741;42.624;26.276;2023-06-26T06:59:47;99263.31;;;22.68;87.44
74958;BME280;63741;42.624;26.276;2023-06-26T07:02:18;99263.53;;;22.80;87.51
74958;BME280;63741;42.624;26.276;2023-06-26T07:04:46;99268.91;;;22.60;90.13
74958;BME280;63741;42.624;26.276;2023-06-26T07:07:13;99270.59;;;22.74;88.47
74958;BME280;63741;42.624;26.276;2023-06-26T07:09:42;99269.34;;;22.83;88.52
74958;BME280;63741;42.624;26.276;2023-06-26T07:12:09;99274.75;;;23.03;84.66
74958;BME280;63741;42.624;26.276;2023-06-26T07:14:36;99265.44;;;23.06;87.66
74958;BME280;63741;42.624;26.276;2023-06-26T07:17:03;99275.16;;;23.07;86.73
74958;BME280;63741;42.624;26.276;2023-06-26T07:19:32;99272.88;;;23.10;87.11
74958;BME280;63741;42.624;26.276;2023-06-26T07:21:59;99289.91;;;22.98;88.41
74958;BME280;63741;42.624;26.276;2023-06-26T07:24:26;99279.75;;;22.93;88.61
74958;BME280;63741;42.624;26.276;2023-06-26T07:26:53;99283.03;;;22.88;88.39
74958;BME280;63741;42.624;26.276;2023-06-26T07:29:20;99282.41;;;22.80;86.97
74958;BME280;63741;42.624;26.276;2023-06-26T07:31:47;99279.91;;;22.71;86.31
74958;BME280;63741;42.624;26.276;2023-06-26T07:34:14;99286.75;;;22.67;88.22
74958;BME280;63741;42.624;26.276;2023-06-26T07:36:41;99290.09;;;22.83;85.94
74958;BME280;63741;42.624;26.276;2023-06-26T07:39:08;99281.81;;;23.04;85.46
74958;BME280;63741;42.624;26.276;2023-06-26T07:41:39;99289.09;;;22.97;83.81
74958;BME280;63741;42.624;26.276;2023-06-26T07:44:06;99290.09;;;23.16;82.16
74958;BME280;63741;42.624;26.276;2023-06-26T07:46:33;99291.97;;;23.29;85.28
74958;BME280;63741;42.624;26.276;2023-06-26T07:49:00;99280.72;;;23.38;86.57
74958;BME280;63741;42.624;26.276;2023-06-26T07:51:27;99288.63;;;23.46;84.92
74958;BME280;63741;42.624;26.276;2023-06-26T07:53:53;99290.25;;;23.48;83.19
74958;BME280;63741;42.624;26.276;2023-06-26T07:56:20;99293.16;;;23.66;82.15
74958;BME280;63741;42.624;26.276;2023-06-26T07:58:47;99298.16;;;23.42;86.20
74958;BME280;63741;42.624;26.276;2023-06-26T08:01:14;99296.09;;;23.44;86.25
74958;BME280;63741;42.624;26.276;2023-06-26T08:03:41;99297.72;;;23.59;85.75
74958;BME280;63741;42.624;26.276;2023-06-26T08:06:09;99305.22;;;23.30;87.63
74958;BME280;63741;42.624;26.276;2023-06-26T08:08:38;99305.00;;;23.52;84.07
74958;BME280;63741;42.624;26.276;2023-06-26T08:11:05;99291.91;;;23.68;84.67
74958;BME280;63741;42.624;26.276;2023-06-26T08:13:32;99297.31;;;23.62;83.40
74958;BME280;63741;42.624;26.276;2023-06-26T08:15:59;99298.34;;;23.61;83.84
74958;BME280;63741;42.624;26.276;2023-06-26T08:18:26;99300.84;;;23.62;86.47
74958;BME280;63741;42.624;26.276;2023-06-26T08:20:53;99298.13;;;23.76;84.24
74958;BME280;63741;42.624;26.276;2023-06-26T08:23:19;99305.59;;;23.60;83.77
74958;BME280;63741;42.624;26.276;2023-06-26T08:25:52;99306.44;;;23.61;84.26
74958;BME280;63741;42.624;26.276;2023-06-26T08:28:19;99308.97;;;23.49;83.55
74958;BME280;63741;42.624;26.276;2023-06-26T08:30:45;99315.59;;;23.60;84.99
74958;BME280;63741;42.624;26.276;2023-06-26T08:33:13;99315.81;;;23.65;80.12
74958;BME280;63741;42.624;26.276;2023-06-26T08:35:40;99320.56;;;23.76;79.65
74958;BME280;63741;42.624;26.276;2023-06-26T08:38:07;99314.97;;;23.71;81.06
74958;BME280;63741;42.624;26.276;2023-06-26T08:40:36;99312.06;;;23.66;80.88
74958;BME280;63741;42.624;26.276;2023-06-26T08:43:04;99322.19;;;23.90;79.21
74958;BME280;63741;42.624;26.276;2023-06-26T08:45:32;99328.00;;;23.87;78.87
74958;BME280;63741;42.624;26.276;2023-06-26T08:48:00;99316.03;;;23.50;82.01
74958;BME280;63741;42.624;26.276;2023-06-26T08:50:30;99322.84;;;23.66;80.80
74958;BME280;63741;42.624;26.276;2023-06-26T08:56:02;99319.13;;;23.74;79.15
74958;BME280;63741;42.624;26.276;2023-06-26T08:58:29;99323.28;;;23.76;78.98
74958;BME280;63741;42.624;26.276;2023-06-26T09:00:57;99312.88;;;23.60;79.61
74958;BME280;63741;42.624;26.276;2023-06-26T09:03:24;99325.09;;;23.89;78.17
74958;BME280;63741;42.624;26.276;2023-06-26T09:05:52;99319.94;;;23.81;78.11
74958;BME280;63741;42.624;26.276;2023-06-26T09:08:19;99324.28;;;23.82;79.13
74958;BME280;63741;42.624;26.276;2023-06-26T09:10:46;99316.81;;;23.77;80.24
74958;BME280;63741;42.624;26.276;2023-06-26T09:13:13;99321.84;;;23.54;81.38
74958;BME280;63741;42.624;26.276;2023-06-26T09:15:55;99322.88;;;23.46;82.10
74958;BME280;63741;42.624;26.276;2023-06-26T09:18:22;99326.59;;;23.65;80.18
74958;BME280;63741;42.624;26.276;2023-06-26T09:20:50;99331.47;;;24.01;76.15
74958;BME280;63741;42.624;26.276;2023-06-26T09:23:21;99328.41;;;23.98;76.98
74958;BME280;63741;42.624;26.276;2023-06-26T09:25:48;99329.72;;;23.68;79.84
74958;BME280;63741;42.624;26.276;2023-06-26T09:28:15;99330.97;;;23.59;80.53
74958;BME280;63741;42.624;26.276;2023-06-26T09:30:44;99331.56;;;23.75;80.29
74958;BME280;63741;42.624;26.276;2023-06-26T09:33:14;99333.81;;;23.91;78.22
74958;BME280;63741;42.624;26.276;2023-06-26T09:35:46;99343.75;;;24.04;77.58
74958;BME280;63741;42.624;26.276;2023-06-26T09:38:13;99345.44;;;23.91;78.66
74958;BME280;63741;42.624;26.276;2023-06-26T09:40:41;99347.38;;;23.71;82.45
74958;BME280;63741;42.624;26.276;2023-06-26T09:43:12;99353.41;;;23.66;81.55
74958;BME280;63741;42.624;26.276;2023-06-26T09:45:40;99346.53;;;23.64;80.42
74958;BME280;63741;42.624;26.276;2023-06-26T09:48:07;99349.22;;;23.64;82.10
74958;BME280;63741;42.624;26.276;2023-06-26T09:50:41;99345.63;;;24.03;78.54
74958;BME280;63741;42.624;26.276;2023-06-26T09:53:28;99354.84;;;23.76;80.09
74958;BME280;63741;42.624;26.276;2023-06-26T09:55:55;99359.81;;;23.85;79.94
74958;BME280;63741;42.624;26.276;2023-06-26T09:58:23;99356.50;;;23.63;79.96
74958;BME280;63741;42.624;26.276;2023-06-26T10:00:51;99358.53;;;23.94;78.45
74958;BME280;63741;42.624;26.276;2023-06-26T10:03:18;99365.56;;;24.09;79.74
74958;BME280;63741;42.624;26.276;2023-06-26T10:05:46;99359.50;;;24.20;77.67
74958;BME280;63741;42.624;26.276;2023-06-26T10:08:13;99361.63;;;24.05;78.31
74958;BME280;63741;42.624;26.276;2023-06-26T10:10:41;99359.09;;;24.10;79.16
74958;BME280;63741;42.624;26.276;2023-06-26T10:13:18;99366.69;;;24.33;77.54
74958;BME280;63741;42.624;26.276;2023-06-26T10:15:46;99358.91;;;24.11;79.85
74958;BME280;63741;42.624;26.276;2023-06-26T10:18:14;99359.94;;;24.10;79.82
74958;BME280;63741;42.624;26.276;2023-06-26T10:20:43;99359.69;;;24.18;80.05
74958;BME280;63741;42.624;26.276;2023-06-26T10:23:11;99356.09;;;24.44;75.03
74958;BME280;63741;42.624;26.276;2023-06-26T10:25:40;99356.34;;;24.75;72.59
74958;BME280;63741;42.624;26.276;2023-06-26T10:28:10;99362.75;;;24.80;72.85
74958;BME280;63741;42.624;26.276;2023-06-26T10:30:39;99367.38;;;25.05;74.51
74958;BME280;63741;42.624;26.276;2023-06-26T10:33:07;99361.34;;;25.09;75.66
74958;BME280;63741;42.624;26.276;2023-06-26T10:35:43;99361.59;;;25.26;75.05
74958;BME280;63741;42.624;26.276;2023-06-26T10:38:11;99358.34;;;25.42;75.06
74958;BME280;63741;42.624;26.276;2023-06-26T10:40:43;99354.47;;;25.57;71.33
74958;BME280;63741;42.624;26.276;2023-06-26T10:43:12;99362.00;;;25.73;73.67
74958;BME280;63741;42.624;26.276;2023-06-26T10:45:44;99353.97;;;25.85;69.49
74958;BME280;63741;42.624;26.276;2023-06-26T10:48:15;99339.31;;;25.92;67.52
74958;BME280;63741;42.624;26.276;2023-06-26T10:50:43;99338.97;;;25.64;68.54
74958;BME280;63741;42.624;26.276;2023-06-26T10:55:58;99340.53;;;25.78;68.66
74958;BME280;63741;42.624;26.276;2023-06-26T10:58:41;99337.81;;;25.96;71.99
74958;BME280;63741;42.624;26.276;2023-06-26T11:03:45;99332.78;;;26.00;66.93
74958;BME280;63741;42.624;26.276;2023-06-26T11:06:22;99320.16;;;26.24;66.60
74958;BME280;63741;42.624;26.276;2023-06-26T11:08:50;99326.00;;;26.09;67.50
74958;BME280;63741;42.624;26.276;2023-06-26T11:11:22;99322.59;;;26.14;64.56
74958;BME280;63741;42.624;26.276;2023-06-26T11:14:09;99313.69;;;26.25;65.86
74958;BME280;63741;42.624;26.276;2023-06-26T11:16:38;99310.00;;;26.19;66.53
74958;BME280;63741;42.624;26.276;2023-06-26T11:19:06;99313.50;;;25.90;68.68
74958;BME280;63741;42.624;26.276;2023-06-26T11:21:33;99305.94;;;26.10;63.96
74958;BME280;63741;42.624;26.276;2023-06-26T11:24:01;99310.03;;;25.83;67.29
74958;BME280;63741;42.624;26.276;2023-06-26T11:26:29;99307.03;;;25.91;65.62
74958;BME280;63741;42.624;26.276;2023-06-26T11:28:56;99303.69;;;26.26;70.31
74958;BME280;63741;42.624;26.276;2023-06-26T11:31:31;99303.00;;;26.60;65.28
74958;BME280;63741;42.624;26.276;2023-06-26T11:34:01;99299.72;;;26.40;62.40
74958;BME280;63741;42.624;26.276;2023-06-26T11:36:30;99294.91;;;26.72;63.45
74958;BME280;63741;42.624;26.276;2023-06-26T11:38:58;99295.69;;;26.61;64.48
74958;BME280;63741;42.624;26.276;2023-06-26T11:41:30;99287.59;;;26.12;64.54
74958;BME280;63741;42.624;26.276;2023-06-26T11:44:00;99298.44;;;26.12;65.77
74958;BME280;63741;42.624;26.276;2023-06-26T11:46:31;99296.56;;;25.94;65.40
74958;BME280;63741;42.624;26.276;2023-06-26T11:48:58;99290.47;;;25.99;67.54
74958;BME280;63741;42.624;26.276;2023-06-26T11:51:28;99290.78;;;26.39;64.40
74958;BME280;63741;42.624;26.276;2023-06-26T11:53:55;99295.19;;;26.22;65.16
74958;BME280;63741;42.624;26.276;2023-06-26T11:56:22;99296.06;;;26.16;66.41
74958;BME280;63741;42.624;26.276;2023-06-26T11:59:03;99293.16;;;26.17;67.35
74958;BME280;63741;42.624;26.276;2023-06-26T12:04:03;99282.50;;;26.16;61.65
74958;BME280;63741;42.624;26.276;2023-06-26T12:06:36;99292.34;;;26.47;64.99
74958;BME280;63741;42.624;26.276;2023-06-26T12:09:07;99282.41;;;26.83;63.63
74958;BME280;63741;42.624;26.276;2023-06-26T12:11:37;99284.09;;;26.95;59.98
74958;BME280;63741;42.624;26.276;2023-06-26T12:14:05;99277.31;;;26.63;60.18
74958;BME280;63741;42.624;26.276;2023-06-26T12:16:34;99274.16;;;26.89;62.61
74958;BME280;63741;42.624;26.276;2023-06-26T12:19:04;99277.25;;;27.05;57.41
74958;BME280;63741;42.624;26.276;2023-06-26T12:24:05;99271.13;;;27.44;58.27
74958;BME280;63741;42.624;26.276;2023-06-26T12:26:33;99270.22;;;27.51;59.74
74958;BME280;63741;42.624;26.276;2023-06-26T12:29:04;99276.59;;;27.21;60.03
74958;BME280;63741;42.624;26.276;2023-06-26T12:31:31;99284.97;;;27.19;58.95
74958;BME280;63741;42.624;26.276;2023-06-26T12:33:59;99280.25;;;27.15;58.15
74958;BME280;63741;42.624;26.276;2023-06-26T12:36:27;99284.69;;;26.98;59.68
74958;BME280;63741;42.624;26.276;2023-06-26T12:38:54;99278.13;;;26.63;59.55
74958;BME280;63741;42.624;26.276;2023-06-26T12:41:24;99282.63;;;26.69;58.09
74958;BME280;63741;42.624;26.276;2023-06-26T12:43:55;99280.06;;;26.75;58.57
74958;BME280;63741;42.624;26.276;2023-06-26T12:46:34;99284.72;;;27.21;59.12
74958;BME280;63741;42.624;26.276;2023-06-26T12:49:02;99281.53;;;27.36;58.58
74958;BME280;63741;42.624;26.276;2023-06-26T12:51:37;99286.50;;;27.15;55.71
74958;BME280;63741;42.624;26.276;2023-06-26T12:54:06;99280.34;;;27.43;57.31
74958;BME280;63741;42.624;26.276;2023-06-26T12:56:34;99286.50;;;27.27;59.19
74958;BME280;63741;42.624;26.276;2023-06-26T12:59:01;99278.25;;;27.34;57.87
74958;BME280;63741;42.624;26.276;2023-06-26T13:01:28;99276.09;;;27.48;56.17
74958;BME280;63741;42.624;26.276;2023-06-26T13:03:55;99269.72;;;28.17;57.77
74958;BME280;63741;42.624;26.276;2023-06-26T13:06:23;99282.06;;;28.25;56.44
74958;BME280;63741;42.624;26.276;2023-06-26T13:08:50;99277.63;;;27.79;56.81
74958;BME280;63741;42.624;26.276;2023-06-26T13:11:17;99278.78;;;27.71;56.89
74958;BME280;63741;42.624;26.276;2023-06-26T13:13:44;99275.59;;;27.04;57.73
74958;BME280;63741;42.624;26.276;2023-06-26T13:16:30;99276.66;;;27.03;58.49